createdAt,value
2019-04-03T00:01:47.602Z,6.07
2019-04-03T00:04:21.127Z,5.80
2019-04-03T00:06:51.839Z,5.67
2019-04-03T00:09:22.775Z,5.30
2019-04-03T00:11:53.076Z,6.20
2019-04-03T00:14:24.439Z,6.03
2019-04-03T00:16:58.461Z,5.53
2019-04-03T00:19:31.195Z,6.10
2019-04-03T00:22:05.370Z,6.40
2019-04-03T00:24:35.490Z,5.20
2019-04-03T00:27:05.408Z,5.30
2019-04-03T00:29:35.554Z,5.40
2019-04-03T00:32:05.867Z,5.13
2019-04-03T00:34:35.728Z,5.17
2019-04-03T00:37:05.738Z,5.30
2019-04-03T00:39:36.384Z,6.00
2019-04-03T00:42:09.745Z,5.67
2019-04-03T00:44:39.803Z,5.00
2019-04-03T00:47:09.855Z,4.97
2019-04-03T00:50:00.549Z,5.43
2019-04-03T00:52:31.368Z,7.00
2019-04-03T00:55:01.501Z,6.43
2019-04-03T00:57:31.505Z,5.73
2019-04-03T01:00:01.048Z,5.80
2019-04-03T01:02:30.963Z,5.70
2019-04-03T01:05:01.168Z,6.37
2019-04-03T01:07:31.179Z,5.30
2019-04-03T01:10:01.026Z,5.90
2019-04-03T01:12:32.037Z,6.17
2019-04-03T01:15:02.347Z,6.43
2019-04-03T01:17:34.892Z,6.63
2019-04-03T01:20:07.961Z,6.00
2019-04-03T01:22:39.057Z,6.57
2019-04-03T01:25:09.533Z,6.37
2019-04-03T01:27:41.610Z,7.60
2019-04-03T01:30:13.879Z,7.50
2019-04-03T01:32:46.126Z,5.87
2019-04-03T01:35:17.409Z,6.70
2019-04-03T01:37:49.463Z,6.10
2019-04-03T01:40:20.919Z,6.40
2019-04-03T01:42:52.778Z,7.00
2019-04-03T01:45:25.263Z,6.33
2019-04-03T01:47:58.242Z,5.87
2019-04-03T01:50:28.656Z,6.10
2019-04-03T01:53:01.789Z,7.20
2019-04-03T01:55:31.030Z,5.70
2019-04-03T01:58:06.098Z,5.80
2019-04-03T02:00:37.643Z,6.43
2019-04-03T02:03:10.862Z,5.80
2019-04-03T02:05:43.825Z,6.67
2019-04-03T02:08:15.539Z,7.27
2019-04-03T02:10:48.946Z,7.33
2019-04-03T02:13:22.566Z,7.80
2019-04-03T02:15:53.680Z,6.80
2019-04-03T02:18:25.327Z,6.50
2019-04-03T02:20:57.749Z,6.53
2019-04-03T02:23:27.361Z,6.77
2019-04-03T02:26:02.466Z,6.50
2019-04-03T02:28:34.140Z,6.97
2019-04-03T02:31:03.814Z,7.33
2019-04-03T02:33:37.209Z,6.97
2019-04-03T02:36:11.181Z,6.90
2019-04-03T02:38:38.854Z,6.53
2019-04-03T02:41:09.037Z,6.10
2019-04-03T02:43:38.904Z,6.90
2019-04-03T02:46:09.261Z,6.70
2019-04-03T02:48:40.302Z,6.63
2019-04-03T02:51:10.307Z,6.77
2019-04-03T02:53:41.109Z,7.07
2019-04-03T02:56:14.799Z,6.93
2019-04-03T02:58:45.153Z,6.40
2019-04-03T03:01:18.174Z,6.50
2019-04-03T03:03:49.905Z,6.67
2019-04-03T03:06:23.172Z,6.30
2019-04-03T03:08:53.287Z,6.47
2019-04-03T03:11:24.810Z,7.10
2019-04-03T03:13:55.687Z,6.20
2019-04-03T03:16:27.622Z,6.13
2019-04-03T03:19:02.949Z,6.83
2019-04-03T03:21:34.245Z,5.73
2019-04-03T03:24:07.764Z,5.50
2019-04-03T03:26:38.509Z,6.53
2019-04-03T03:29:17.659Z,5.70
2019-04-03T03:32:01.610Z,5.77
2019-04-03T03:34:13.497Z,6.20
2019-04-03T03:36:44.459Z,5.57
2019-04-03T03:39:15.065Z,5.87
2019-04-03T03:41:45.665Z,5.60
2019-04-03T03:44:18.798Z,5.87
2019-04-03T03:46:49.041Z,5.93
2019-04-03T03:49:19.310Z,6.23
2019-04-03T03:51:50.270Z,5.23
2019-04-03T03:54:21.724Z,5.43
2019-04-03T03:56:52.983Z,4.77
2019-04-03T03:59:26.548Z,5.50
2019-04-03T04:01:57.646Z,5.00
2019-04-03T04:04:27.526Z,5.57
2019-04-03T04:07:03.432Z,5.43
2019-04-03T04:09:36.669Z,4.60
2019-04-03T04:12:07.670Z,5.60
2019-04-03T04:14:48.781Z,5.60
2019-04-03T04:17:19.068Z,7.40
2019-04-03T04:19:49.349Z,5.33
2019-04-03T04:22:26.809Z,4.87
2019-04-03T04:24:58.593Z,5.73
2019-04-03T04:27:28.099Z,5.63
2019-04-03T04:29:58.581Z,5.03
2019-04-03T04:32:30.064Z,4.80
2019-04-03T04:35:03.641Z,4.90
2019-04-03T04:37:33.861Z,5.83
2019-04-03T04:40:04.151Z,5.53
2019-04-03T04:42:34.813Z,5.27
2019-04-03T04:45:11.257Z,4.90
2019-04-03T04:47:40.865Z,5.60
2019-04-03T04:50:11.241Z,5.33
2019-04-03T04:52:41.550Z,5.90
2019-04-03T04:55:12.163Z,4.83
2019-04-03T04:57:42.222Z,5.77
2019-04-03T05:00:15.109Z,6.00
2019-04-03T05:02:44.505Z,5.70
2019-04-03T05:05:14.286Z,5.30
2019-04-03T05:07:44.496Z,5.07
2019-04-03T05:10:17.398Z,5.50
2019-04-03T05:12:46.533Z,7.40
2019-04-03T05:15:21.715Z,5.43
2019-04-03T05:17:57.090Z,5.50
2019-04-03T05:20:26.233Z,5.40
2019-04-03T05:22:57.112Z,5.60
2019-04-03T05:25:29.287Z,6.17
2019-04-03T05:28:02.779Z,5.27
2019-04-03T05:30:37.738Z,5.53
2019-04-03T05:33:10.720Z,5.70
2019-04-03T05:35:40.514Z,6.10
2019-04-03T05:38:10.351Z,5.50
2019-04-03T05:40:40.665Z,5.07
2019-04-03T05:43:10.624Z,4.80
2019-04-03T05:45:42.124Z,5.57
2019-04-03T05:48:13.582Z,5.63
2019-04-03T05:50:44.583Z,7.03
2019-04-03T05:53:15.982Z,5.40
2019-04-03T05:55:46.107Z,7.20
2019-04-03T05:58:19.477Z,5.57
2019-04-03T06:01:02.873Z,6.10
2019-04-03T06:03:38.837Z,6.30
2019-04-03T06:05:58.632Z,7.70
2019-04-03T06:08:29.333Z,8.10
2019-04-03T06:10:59.415Z,6.43
2019-04-03T06:13:32.741Z,6.07
2019-04-03T06:16:03.277Z,6.50
2019-04-03T06:18:36.480Z,8.30
2019-04-03T06:21:07.383Z,5.80
2019-04-03T06:23:38.901Z,5.90
2019-04-03T06:26:08.856Z,5.67
2019-04-03T06:28:39.190Z,7.20
2019-04-03T06:31:09.422Z,7.77
2019-04-03T06:33:40.549Z,7.57
2019-04-03T06:36:11.921Z,7.27
2019-04-03T06:38:41.716Z,7.20
2019-04-03T06:41:13.997Z,7.17
2019-04-03T06:43:43.813Z,7.00
2019-04-03T06:46:14.011Z,8.93
2019-04-03T06:48:44.131Z,7.47
2019-04-03T06:51:16.510Z,7.83
2019-04-03T06:53:46.430Z,9.87
2019-04-03T06:56:16.556Z,7.07
2019-04-03T06:58:46.541Z,7.17
2019-04-03T07:01:18.102Z,6.33
2019-04-03T07:03:48.272Z,6.17
2019-04-03T07:06:22.513Z,6.43
2019-04-03T07:08:52.720Z,6.40
2019-04-03T07:11:24.497Z,6.67
2019-04-03T07:13:55.823Z,7.53
2019-04-03T07:16:29.194Z,7.07
2019-04-03T07:19:02.463Z,8.43
2019-04-03T07:21:33.448Z,7.10
2019-04-03T07:24:05.427Z,8.10
2019-04-03T07:26:36.292Z,12.57
2019-04-03T07:29:06.320Z,8.60
2019-04-03T07:31:36.321Z,8.50
2019-04-03T07:34:06.857Z,8.33
2019-04-03T07:36:41.299Z,9.17
2019-04-03T07:39:11.936Z,9.13
2019-04-03T07:41:42.154Z,8.50
2019-04-03T07:44:12.334Z,8.70
2019-04-03T07:46:43.150Z,11.60
2019-04-03T07:49:14.186Z,8.77
2019-04-03T07:51:44.874Z,8.10
2019-04-03T07:54:18.256Z,7.93
2019-04-03T07:56:48.379Z,8.57
2019-04-03T07:59:19.929Z,8.63
2019-04-03T08:01:51.748Z,9.70
2019-04-03T08:04:24.790Z,10.53
2019-04-03T08:06:55.706Z,9.23
2019-04-03T08:09:26.290Z,8.87
2019-04-03T08:11:56.631Z,9.70
2019-04-03T08:14:26.830Z,9.33
2019-04-03T08:16:58.567Z,8.80
2019-04-03T08:19:30.373Z,8.07
2019-04-03T08:22:01.889Z,10.97
2019-04-03T08:24:33.433Z,7.87
2019-04-03T08:27:03.726Z,8.00
2019-04-03T08:29:38.218Z,8.03
2019-04-03T08:32:09.029Z,6.83
2019-04-03T08:34:40.293Z,6.80
2019-04-03T08:37:10.976Z,7.43
2019-04-03T08:39:41.419Z,8.87
2019-04-03T08:42:15.067Z,7.10
2019-04-03T08:44:44.972Z,10.13
2019-04-03T08:47:15.375Z,7.83
2019-04-03T08:49:46.927Z,6.90
2019-04-03T08:52:17.183Z,8.30
2019-04-03T08:54:47.284Z,7.70
2019-04-03T08:57:20.008Z,7.10
2019-04-03T08:59:52.346Z,8.00
2019-04-03T09:02:22.990Z,6.60
2019-04-03T09:04:55.636Z,7.20
2019-04-03T09:07:27.291Z,13.20
2019-04-03T09:10:00.422Z,7.30
2019-04-03T09:12:29.150Z,6.43
2019-04-03T09:14:59.401Z,6.07
2019-04-03T09:17:29.458Z,7.30
2019-04-03T09:19:59.729Z,8.20
2019-04-03T09:22:30.857Z,8.60
2019-04-03T09:25:04.168Z,7.60
2019-04-03T09:27:35.893Z,8.23
2019-04-03T09:30:09.859Z,7.57
2019-04-03T09:32:39.941Z,8.23
2019-04-03T09:35:11.494Z,9.20
2019-04-03T09:37:45.313Z,7.87
2019-04-03T09:40:17.309Z,6.90
2019-04-03T09:42:47.483Z,7.97
2019-04-03T09:45:20.878Z,7.77
2019-04-03T09:47:51.766Z,7.53
2019-04-03T09:50:22.983Z,6.50
2019-04-03T09:52:54.649Z,6.70
2019-04-03T09:55:31.387Z,6.33
2019-04-03T09:58:02.428Z,5.83
2019-04-03T10:00:35.235Z,4.07
2019-04-03T10:03:06.531Z,6.40
2019-04-03T10:05:36.321Z,4.10
2019-04-03T10:08:08.482Z,3.80
2019-04-03T10:10:39.349Z,3.50
2019-04-03T10:13:09.183Z,4.03
2019-04-03T10:15:40.358Z,6.07
2019-04-03T10:18:12.243Z,4.10
2019-04-03T10:20:42.281Z,3.97
2019-04-03T10:23:15.596Z,5.57
2019-04-03T10:25:45.762Z,4.50
2019-04-03T10:28:15.693Z,7.13
2019-04-03T10:30:47.492Z,4.00
2019-04-03T10:33:18.386Z,4.00
2019-04-03T10:35:48.518Z,4.90
2019-04-03T10:38:19.019Z,7.63
2019-04-03T10:40:48.955Z,5.30
2019-04-03T10:43:19.132Z,4.87
2019-04-03T10:45:48.984Z,4.67
2019-04-03T10:48:23.500Z,7.53
2019-04-03T10:50:53.993Z,4.73
2019-04-03T10:53:23.985Z,4.03
2019-04-03T10:55:55.383Z,5.07
2019-04-03T10:58:28.586Z,4.00
2019-04-03T11:01:02.803Z,4.43
2019-04-03T11:03:33.005Z,4.70
2019-04-03T11:06:06.257Z,4.47
2019-04-03T11:08:36.229Z,5.27
2019-04-03T11:11:06.289Z,5.03
2019-04-03T11:13:36.115Z,5.20
2019-04-03T11:16:06.528Z,5.07
2019-04-03T11:18:38.017Z,3.73
2019-04-03T11:21:12.176Z,6.10
2019-04-03T11:23:44.777Z,4.97
2019-04-03T11:26:13.861Z,4.90
2019-04-03T11:28:43.818Z,5.33
2019-04-03T11:31:24.982Z,4.90
2019-04-03T11:33:46.505Z,4.60
2019-04-03T11:36:16.749Z,4.80
2019-04-03T11:38:46.638Z,5.03
2019-04-03T11:41:19.603Z,5.30
2019-04-03T11:43:48.818Z,5.07
2019-04-03T11:46:19.009Z,4.87
2019-04-03T11:48:49.345Z,7.67
2019-04-03T11:51:22.143Z,5.50
2019-04-03T11:53:54.686Z,4.53
2019-04-03T11:56:24.517Z,4.67
2019-04-03T11:58:55.502Z,4.70
2019-04-03T12:01:26.954Z,5.20
2019-04-03T12:03:57.215Z,5.10
2019-04-03T12:06:27.405Z,5.20
2019-04-03T12:09:00.903Z,5.10
2019-04-03T12:11:30.640Z,4.73
2019-04-03T12:14:01.760Z,4.80
2019-04-03T12:16:31.798Z,4.70
2019-04-03T12:19:02.912Z,5.17
2019-04-03T12:21:34.769Z,4.80
2019-04-03T12:24:04.982Z,9.27
2019-04-03T12:26:35.462Z,4.97
2019-04-03T12:29:11.255Z,4.50
2019-04-03T12:31:44.240Z,4.73
2019-04-03T12:34:14.407Z,4.27
2019-04-03T12:36:46.197Z,4.97
2019-04-03T12:39:28.850Z,4.90
2019-04-03T12:41:59.410Z,10.23
2019-04-03T12:44:32.497Z,5.20
2019-04-03T12:47:06.914Z,4.87
2019-04-03T12:49:39.145Z,4.33
2019-04-03T12:52:09.278Z,4.30
2019-04-03T12:54:39.281Z,4.17
2019-04-03T12:57:10.502Z,4.30
2019-04-03T12:59:40.828Z,4.60
2019-04-03T13:02:13.122Z,5.70
2019-04-03T13:04:43.657Z,4.80
2019-04-03T13:07:15.144Z,4.60
2019-04-03T13:09:48.717Z,5.03
2019-04-03T13:12:23.090Z,5.13
2019-04-03T13:14:52.193Z,5.40
2019-04-03T13:17:22.689Z,5.23
2019-04-03T13:19:53.072Z,4.57
2019-04-03T13:22:24.377Z,4.40
2019-04-03T13:24:54.738Z,5.07
2019-04-03T13:27:24.945Z,5.10
2019-04-03T13:29:55.948Z,4.67
2019-04-03T13:32:26.138Z,5.10
2019-04-03T13:34:56.185Z,5.03
2019-04-03T13:37:25.977Z,5.00
2019-04-03T13:39:56.293Z,5.97
2019-04-03T13:42:26.449Z,5.40
2019-04-03T13:44:59.304Z,6.23
2019-04-03T13:47:28.334Z,5.70
2019-04-03T13:50:02.880Z,5.07
2019-04-03T13:52:41.739Z,6.07
2019-04-03T13:55:07.767Z,5.80
2019-04-03T13:57:38.422Z,6.10
2019-04-03T14:00:20.636Z,5.67
2019-04-03T14:02:44.966Z,5.20
2019-04-03T14:05:17.922Z,6.53
2019-04-03T14:07:48.235Z,5.80
2019-04-03T14:10:19.228Z,5.63
2019-04-03T14:12:49.163Z,5.60
2019-04-03T14:15:21.550Z,5.30
2019-04-03T14:17:58.983Z,6.10
2019-04-03T14:20:32.033Z,7.47
2019-04-03T14:23:13.277Z,6.43
2019-04-03T14:25:43.622Z,6.60
2019-04-03T14:28:21.965Z,7.00
2019-04-03T14:30:54.130Z,6.20
2019-04-03T14:33:26.061Z,6.93
2019-04-03T14:35:57.889Z,5.40
2019-04-03T14:38:29.274Z,6.80
2019-04-03T14:40:59.557Z,6.00
2019-04-03T14:43:34.606Z,6.40
2019-04-03T14:46:09.722Z,5.73
2019-04-03T14:48:39.757Z,7.20
2019-04-03T14:51:11.369Z,5.80
2019-04-03T14:53:41.640Z,5.70
2019-04-03T14:56:11.621Z,6.97
2019-04-03T14:58:41.941Z,5.80
2019-04-03T15:01:11.905Z,5.90
2019-04-03T15:03:41.908Z,5.83
2019-04-03T15:06:14.652Z,5.97
2019-04-03T15:08:44.141Z,6.03
2019-04-03T15:11:18.053Z,8.13
2019-04-03T15:13:49.819Z,9.30
2019-04-03T15:16:21.013Z,5.93
2019-04-03T15:18:52.524Z,5.53
2019-04-03T15:21:23.750Z,5.63
2019-04-03T15:23:54.252Z,8.53
2019-04-03T15:26:24.092Z,6.70
2019-04-03T15:28:54.707Z,5.77
2019-04-03T15:31:28.867Z,4.80
2019-04-03T15:33:59.475Z,4.60
2019-04-03T15:36:29.322Z,6.30
2019-04-03T15:39:00.054Z,5.80
2019-04-03T15:41:33.110Z,7.60
2019-04-03T15:44:01.944Z,5.23
2019-04-03T15:46:34.147Z,5.90
2019-04-03T15:49:04.448Z,6.07
2019-04-03T15:51:38.061Z,4.73
2019-04-03T15:54:07.236Z,6.27
2019-04-03T15:56:38.235Z,7.53
2019-04-03T15:59:10.554Z,5.60
2019-04-03T16:01:40.586Z,5.10
2019-04-03T16:04:10.559Z,9.50
2019-04-03T16:06:40.664Z,6.97
2019-04-03T16:09:11.379Z,4.67
2019-04-03T16:11:41.615Z,5.10
2019-04-03T16:14:12.862Z,5.80
2019-04-03T16:16:43.009Z,6.33
2019-04-03T16:19:13.127Z,4.90
2019-04-03T16:21:43.066Z,5.03
2019-04-03T16:24:14.678Z,8.53
2019-04-03T16:26:44.898Z,5.70
2019-04-03T16:29:15.316Z,6.70
2019-04-03T16:31:46.082Z,6.07
2019-04-03T16:34:19.606Z,6.73
2019-04-03T16:36:50.727Z,7.80
2019-04-03T16:39:21.479Z,7.40
2019-04-03T16:41:52.937Z,7.80
2019-04-03T16:44:25.648Z,8.53
2019-04-03T16:46:56.089Z,9.00
2019-04-03T16:49:28.436Z,9.13
2019-04-03T16:51:58.003Z,9.10
2019-04-03T16:54:29.593Z,9.00
2019-04-03T16:57:03.705Z,8.50
2019-04-03T16:59:37.354Z,10.47
2019-04-03T17:02:08.119Z,10.27
2019-04-03T17:04:38.745Z,9.83
2019-04-03T17:07:09.167Z,9.70
2019-04-03T17:09:39.671Z,10.57
2019-04-03T17:12:10.512Z,9.83
2019-04-03T17:14:42.661Z,9.80
2019-04-03T17:17:16.675Z,11.83
2019-04-03T17:19:49.931Z,10.80
2019-04-03T17:22:18.760Z,10.83
2019-04-03T17:24:53.745Z,10.30
2019-04-03T17:27:21.134Z,9.70
2019-04-03T17:29:53.852Z,9.60
2019-04-03T17:32:24.411Z,11.70
2019-04-03T17:34:57.477Z,12.00
2019-04-03T17:37:30.366Z,12.43
2019-04-03T17:39:59.105Z,13.43
2019-04-03T17:42:32.154Z,12.00
2019-04-03T17:45:08.891Z,14.53
2019-04-03T17:47:38.716Z,15.10
2019-04-03T17:50:09.738Z,13.73
2019-04-03T17:52:39.660Z,14.60
2019-04-03T17:55:10.928Z,14.90
2019-04-03T17:57:44.600Z,14.97
2019-04-03T18:00:14.988Z,16.07
2019-04-03T18:02:45.252Z,16.60
2019-04-03T18:05:15.740Z,18.00
2019-04-03T18:07:45.859Z,17.40
2019-04-03T18:10:19.130Z,16.83
2019-04-03T18:12:52.472Z,17.40
2019-04-03T18:15:24.202Z,17.90
2019-04-03T18:17:57.390Z,18.17
2019-04-03T18:20:28.589Z,18.10
2019-04-03T18:22:58.456Z,18.97
2019-04-03T18:25:29.359Z,16.87
2019-04-03T18:28:00.953Z,20.37
2019-04-03T18:30:31.605Z,19.97
2019-04-03T18:33:05.562Z,18.90
2019-04-03T18:35:35.691Z,20.80
2019-04-03T18:38:08.138Z,19.73
2019-04-03T18:40:38.816Z,23.30
2019-04-03T18:43:08.805Z,23.67
2019-04-03T18:45:39.201Z,22.33
2019-04-03T18:48:09.567Z,21.37
2019-04-03T18:50:40.845Z,21.57
2019-04-03T18:53:10.908Z,20.93
2019-04-03T18:55:40.772Z,19.47
2019-04-03T18:58:13.703Z,19.70
2019-04-03T19:00:43.706Z,20.40
2019-04-03T19:03:13.767Z,20.50
2019-04-03T19:05:43.783Z,22.80
2019-04-03T19:08:13.901Z,22.03
2019-04-03T19:10:43.726Z,22.70
2019-04-03T19:13:18.220Z,23.10
2019-04-03T19:15:48.065Z,21.20
2019-04-03T19:18:20.002Z,22.37
2019-04-03T19:20:50.130Z,22.37
2019-04-03T19:23:20.410Z,22.07
2019-04-03T19:25:50.614Z,20.93
2019-04-03T19:28:20.749Z,21.80
2019-04-03T19:30:50.550Z,21.97
2019-04-03T19:33:20.820Z,22.03
2019-04-03T19:35:51.154Z,22.30
2019-04-03T19:38:22.885Z,22.03
2019-04-03T19:40:53.161Z,22.53
2019-04-03T19:43:23.738Z,22.90
2019-04-03T19:45:54.832Z,22.47
2019-04-03T19:48:25.681Z,24.40
2019-04-03T19:50:57.633Z,24.07
2019-04-03T19:53:27.778Z,26.80
2019-04-03T19:55:57.817Z,26.87
2019-04-03T19:58:29.570Z,25.90
2019-04-03T20:00:59.726Z,26.50
2019-04-03T20:03:29.640Z,25.53
2019-04-03T20:06:01.197Z,25.90
2019-04-03T20:08:32.067Z,25.83
2019-04-03T20:11:03.018Z,23.90
2019-04-03T20:13:39.551Z,22.47
2019-04-03T20:16:08.623Z,20.23
2019-04-03T20:18:40.664Z,16.43
2019-04-03T20:21:11.835Z,11.83
2019-04-03T20:23:42.545Z,10.07
2019-04-03T20:26:12.816Z,9.97
2019-04-03T20:28:43.390Z,9.60
2019-04-03T20:31:15.676Z,7.83
2019-04-03T20:33:46.143Z,5.93
2019-04-03T20:36:20.212Z,5.80
2019-04-03T20:38:50.028Z,5.83
2019-04-03T20:41:20.142Z,6.03
2019-04-03T20:43:50.154Z,6.23
2019-04-03T20:46:20.062Z,5.07
2019-04-03T20:48:49.908Z,5.20
2019-04-03T20:51:19.831Z,4.40
2019-04-03T20:53:50.760Z,3.60
2019-04-03T20:56:21.545Z,2.67
2019-04-03T20:58:56.105Z,1.73
2019-04-03T21:01:23.834Z,1.93
2019-04-03T21:03:53.660Z,1.40
2019-04-03T21:06:23.507Z,2.80
2019-04-03T21:08:53.738Z,1.40
2019-04-03T21:11:23.616Z,2.57
2019-04-03T21:13:53.670Z,1.10
2019-04-03T21:16:33.138Z,1.77
2019-04-03T21:18:55.593Z,2.87
2019-04-03T21:21:26.081Z,0.90
2019-04-03T21:23:56.252Z,1.00
2019-04-03T21:26:26.145Z,1.13
2019-04-03T21:28:56.287Z,1.00
2019-04-03T21:31:26.618Z,0.93
2019-04-03T21:33:56.874Z,0.73
2019-04-03T21:36:27.401Z,0.90
2019-04-03T21:38:57.590Z,1.07
2019-04-03T21:41:27.613Z,1.07
2019-04-03T21:43:59.572Z,0.90
2019-04-03T21:46:30.304Z,0.90
2019-04-03T21:49:00.511Z,0.83
2019-04-03T21:51:33.550Z,1.17
2019-04-03T21:54:03.784Z,0.90
2019-04-03T21:56:33.713Z,0.93
2019-04-03T21:59:04.245Z,0.90
2019-04-03T22:01:34.807Z,1.20
2019-04-03T22:04:06.762Z,1.10
2019-04-03T22:06:39.104Z,0.90
2019-04-03T22:09:12.769Z,0.90
2019-04-03T22:11:43.080Z,0.90
2019-04-03T22:14:13.767Z,0.90
2019-04-03T22:16:44.087Z,0.80
2019-04-03T22:19:14.069Z,0.83
2019-04-03T22:21:44.428Z,1.00
2019-04-03T22:24:14.763Z,0.93
2019-04-03T22:26:45.322Z,0.93
2019-04-03T22:29:23.605Z,0.90
2019-04-03T22:31:57.227Z,0.80
2019-04-03T22:34:29.925Z,0.83
2019-04-03T22:37:03.784Z,1.13
2019-04-03T22:39:34.952Z,1.20
2019-04-03T22:42:05.584Z,0.80
2019-04-03T22:44:36.097Z,1.10
2019-04-03T22:47:07.086Z,0.97
2019-04-03T22:49:38.573Z,1.00
2019-04-03T22:52:09.474Z,0.97
2019-04-03T22:54:43.574Z,1.10
2019-04-03T22:57:13.283Z,1.30
2019-04-03T22:59:43.110Z,0.80
2019-04-03T23:02:13.410Z,0.93
2019-04-03T23:04:46.307Z,0.70
2019-04-03T23:07:16.482Z,0.93
2019-04-03T23:09:46.410Z,0.90
2019-04-03T23:12:16.435Z,2.27
2019-04-03T23:14:46.825Z,0.90
2019-04-03T23:17:16.758Z,0.80
2019-04-03T23:19:46.664Z,0.93
2019-04-03T23:22:16.872Z,0.93
2019-04-03T23:24:46.951Z,1.07
2019-04-03T23:27:17.239Z,0.87
2019-04-03T23:29:47.627Z,1.30
2019-04-03T23:32:18.266Z,1.17
2019-04-03T23:34:49.576Z,0.80
2019-04-03T23:37:20.514Z,1.37
2019-04-03T23:39:50.681Z,0.90
2019-04-03T23:42:20.768Z,1.00
2019-04-03T23:44:51.849Z,1.00
2019-04-03T23:47:21.735Z,1.13
2019-04-03T23:49:53.227Z,0.90
2019-04-03T23:52:23.579Z,1.10
2019-04-03T23:54:53.628Z,1.10
2019-04-03T23:57:23.456Z,1.00
2019-04-03T23:59:53.812Z,1.00
